Time;durP1;ratioP1;P1;durP2;ratioP2;P2;SDS_P1;SDS_P2;PMS_P1;PMS_P2;Temp;Humidity;BMP_temperature;BMP_pressure;BME280_temperature;BME280_humidity;BME280_pressure;Samples;Min_cycle;Max_cycle;Signal;HPM_P1;HPM_P2
2022/10/05 00:01:17;;;;;;;10.35;6.97;;;;;;;;;;5016432;28;20053;-62
2022/10/05 00:03:42;;;;;;;10.80;6.07;;;15.60;99.90;;;;;;5026477;28;20041;-63
2022/10/05 00:06:10;;;;;;;12.38;6.40;;;15.60;99.90;;;;;;5023293;28;20060;-62
2022/10/05 00:08:36;;;;;;;10.23;6.03;;;;;;;;;;5026323;28;20041;-62
2022/10/05 00:11:05;;;;;;;11.35;6.25;;;15.50;99.90;;;;;;5020911;28;20046;-63
2022/10/05 00:13:30;;;;;;;8.52;5.10;;;15.60;99.90;;;;;;5029061;28;20073;-62
2022/10/05 00:16:14;;;;;;;8.45;4.90;;;15.70;99.90;;;;;;5026865;28;20072;-63
2022/10/05 00:18:40;;;;;;;8.65;4.68;;;15.60;99.90;;;;;;5010725;28;20095;-62
2022/10/05 00:21:27;;;;;;;7.95;4.82;;;15.40;99.90;;;;;;5024311;28;20034;-62
2022/10/05 00:23:55;;;;;;;9.93;4.90;;;;;;;;;;5024447;28;20037;-62
2022/10/05 00:26:24;;;;;;;8.82;4.35;;;15.70;99.90;;;;;;5033551;28;20547;-62
2022/10/05 00:28:55;;;;;;;7.47;3.80;;;;;;;;;;5032534;28;20441;-62
2022/10/05 00:31:24;;;;;;;7.13;3.50;;;15.70;99.90;;;;;;5033625;28;20037;-62
2022/10/05 00:33:50;;;;;;;7.75;3.60;;;15.70;99.90;;;;;;5027447;28;20064;-62
2022/10/05 00:36:16;;;;;;;7.97;3.55;;;15.50;99.90;;;;;;5033544;28;20045;-62
2022/10/05 00:38:42;;;;;;;6.60;3.42;;;;;;;;;;5031752;28;20045;-63
2022/10/05 00:41:50;;;;;;;9.20;3.30;;;15.40;99.90;;;;;;5032341;28;20038;-62
2022/10/05 00:44:54;;;;;;;7.13;3.33;;;16.40;99.90;;;;;;5020648;28;20179;-62
2022/10/05 00:47:43;;;;;;;6.38;3.22;;;15.60;99.90;;;;;;5027383;28;20443;-63
2022/10/05 00:50:24;;;;;;;6.93;3.38;;;;;;;;;;5033130;22;20049;-64
2022/10/05 00:53:07;;;;;;;6.38;3.67;;;15.30;99.90;;;;;;5001222;28;20129;-61
2022/10/05 00:55:48;;;;;;;6.80;3.65;;;15.30;99.90;;;;;;4998504;28;20507;-61
2022/10/05 00:58:37;;;;;;;6.63;3.78;;;15.20;99.90;;;;;;4998128;28;20046;-61
2022/10/05 01:01:14;;;;;;;7.53;3.40;;;;;;;;;;4995629;28;20042;-61
2022/10/05 01:04:00;;;;;;;5.85;3.05;;;;;;;;;;4997695;28;20432;-61
2022/10/05 01:06:29;;;;;;;5.30;2.65;;;;;;;;;;4997609;28;20108;-61
2022/10/05 01:09:02;;;;;;;6.75;2.80;;;;;;;;;;4995220;28;20042;-60
2022/10/05 01:11:31;;;;;;;7.53;2.90;;;;;;;;;;5008798;28;20045;-61
2022/10/05 01:13:57;;;;;;;9.02;3.45;;;;;;;;;;5005336;28;20041;-61
2022/10/05 01:16:30;;;;;;;9.00;3.10;;;;;;;;;;5006586;28;20050;-61
2022/10/05 01:19:09;;;;;;;8.18;3.70;;;;;;;;;;5004047;28;20040;-61
2022/10/05 01:22:18;;;;;;;7.20;3.55;;;15.20;99.90;;;;;;5005266;28;20403;-61
2022/10/05 01:25:11;;;;;;;7.13;3.60;;;15.10;99.90;;;;;;4995592;28;20053;-61
2022/10/05 01:27:42;;;;;;;6.72;3.75;;;;;;;;;;5003337;28;20101;-61
2022/10/05 01:30:11;;;;;;;5.93;3.15;;;;;;;;;;5006698;28;20045;-61
2022/10/05 01:32:46;;;;;;;6.20;3.50;;;;;;;;;;5003683;28;20156;-61
2022/10/05 01:35:20;;;;;;;6.03;3.35;;;15.70;99.90;;;;;;4999555;28;20038;-61
2022/10/05 01:38:01;;;;;;;9.80;4.18;;;15.10;99.90;;;;;;4999562;28;20041;-61
2022/10/05 01:40:41;;;;;;;7.55;3.80;;;15.30;99.90;;;;;;4987429;28;20050;-61
2022/10/05 01:43:31;;;;;;;9.95;4.20;;;;;;;;;;5004176;28;20034;-61
2022/10/05 01:46:27;;;;;;;10.18;4.72;;;14.60;99.90;;;;;;5002446;28;20049;-61
2022/10/05 01:48:53;;;;;;;8.45;4.95;;;;;;;;;;4990264;28;20034;-61
2022/10/05 01:51:36;;;;;;;8.40;5.25;;;15.40;99.90;;;;;;4991636;28;20095;-61
2022/10/05 01:54:21;;;;;;;8.95;4.93;;;;;;;;;;4985506;28;20114;-61
2022/10/05 01:56:59;;;;;;;9.95;5.60;;;;;;;;;;4998781;28;20416;-61
2022/10/05 02:00:05;;;;;;;8.65;5.25;;;15.60;99.90;;;;;;5004095;28;20523;-61
2022/10/05 02:02:31;;;;;;;;;;;;;;;;;;4999026;28;20112;-61
2022/10/05 02:05:08;;;;;;;10.45;5.40;;;15.30;99.90;;;;;;5001096;28;20392;-61
2022/10/05 02:07:40;;;;;;;11.45;5.97;;;;;;;;;;4997510;28;20061;-61
2022/10/05 02:10:17;;;;;;;8.75;5.60;;;;;;;;;;4992555;28;20097;-61
2022/10/05 02:12:45;;;;;;;9.90;5.80;;;;;;;;;;4997115;28;20037;-61
2022/10/05 02:15:16;;;;;;;10.63;5.70;;;;;;;;;;4999524;28;20108;-62
2022/10/05 02:17:58;;;;;;;10.25;5.85;;;15.30;99.90;;;;;;4995643;28;20458;-61
2022/10/05 02:20:27;;;;;;;10.65;6.25;;;;;;;;;;4999137;28;20053;-61
2022/10/05 02:22:55;;;;;;;10.55;5.55;;;;;;;;;;4994417;28;20570;-61
2022/10/05 02:25:44;;;;;;;14.00;5.88;;;15.50;99.90;;;;;;5004086;28;20045;-61
2022/10/05 02:28:10;;;;;;;10.20;6.35;;;;;;;;;;4995068;28;20038;-61
2022/10/05 02:30:46;;;;;;;8.68;5.45;;;15.10;99.90;;;;;;4998751;28;20042;-61
2022/10/05 02:33:25;;;;;;;7.60;5.00;;;;;;;;;;5011343;28;20114;-61
2022/10/05 02:35:51;;;;;;;8.25;4.45;;;;;;;;;;4993298;28;20049;-62
2022/10/05 02:38:36;;;;;;;8.07;4.70;;;;;;;;;;4996570;28;20046;-61
2022/10/05 02:41:05;;;;;;;9.02;4.45;;;;;;;;;;4997252;28;20038;-61
2022/10/05 02:44:08;;;;;;;8.93;4.60;;;15.70;99.90;;;;;;4994534;28;20504;-61
2022/10/05 02:46:43;;;;;;;9.27;4.10;;;;;;;;;;4985416;28;20053;-61
2022/10/05 02:49:27;;;;;;;7.20;3.72;;;;;;;;;;5010026;28;20314;-61
2022/10/05 02:52:20;;;;;;;20.83;3.85;;;;;;;;;;5005083;28;20066;-61
2022/10/05 02:54:52;;;;;;;8.65;4.05;;;;;;;;;;4962179;28;20097;-61
2022/10/05 02:57:27;;;;;;;7.72;3.70;;;15.60;99.90;;;;;;5005057;28;20049;-61
2022/10/05 02:59:57;;;;;;;6.03;2.85;;;15.50;99.90;;;;;;4993407;28;20034;-61
2022/10/05 03:02:25;;;;;;;7.00;3.22;;;;;;;;;;4997252;28;20404;-61
2022/10/05 03:05:15;;;;;;;6.60;3.05;;;15.60;99.90;;;;;;4999970;28;20053;-61
2022/10/05 03:08:13;;;;;;;12.13;3.40;;;15.60;99.90;;;;;;4998816;28;20049;-61
2022/10/05 03:10:45;;;;;;;9.27;3.30;;;;;;;;;;4986234;28;20068;-61
2022/10/05 03:13:43;;;;;;;6.78;3.17;;;15.30;99.90;;;;;;4999258;28;20038;-61
2022/10/05 03:16:24;;;;;;;5.80;2.80;;;15.50;99.90;;;;;;4999582;28;20090;-61
2022/10/05 03:18:59;;;;;;;8.95;3.05;;;;;;;;;;4998295;28;20460;-61
2022/10/05 03:21:25;;;;;;;6.35;2.63;;;;;;;;;;5003175;28;20049;-61
2022/10/05 03:24:09;;;;;;;9.32;3.30;;;;;;;;;;4975170;28;20420;-61
2022/10/05 03:26:44;;;;;;;7.15;2.50;;;;;;;;;;4993231;28;20046;-62
2022/10/05 03:29:16;;;;;;;6.43;2.85;;;;;;;;;;4994773;28;20384;-61
2022/10/05 03:32:14;;;;;;;6.13;2.70;;;15.50;99.90;;;;;;4991155;28;20125;-61
2022/10/05 03:35:13;;;;;;;11.32;3.75;;;15.30;99.90;;;;;;5002902;28;20312;-60
2022/10/05 03:37:46;;;;;;;7.47;2.80;;;;;;;;;;5002179;28;20048;-61
2022/10/05 03:40:29;;;;;;;6.35;3.03;;;;;;;;;;4997902;28;20042;-61
2022/10/05 03:43:11;;;;;;;7.88;2.97;;;;;;;;;;4990246;28;20294;-61
2022/10/05 03:45:37;;;;;;;5.70;2.38;;;;;;;;;;5001522;28;20047;-61
2022/10/05 03:48:11;;;;;;;7.25;2.50;;;;;;;;;;5000910;28;20038;-61
2022/10/05 03:50:45;;;;;;;6.60;2.35;;;;;;;;;;5002108;28;20042;-61
2022/10/05 03:53:11;;;;;;;;;;;;;;;;;;5005790;28;20030;-61
2022/10/05 03:56:03;;;;;;;5.72;2.38;;;15.60;99.90;;;;;;5002780;28;19972;-61
2022/10/05 03:58:38;;;;;;;6.13;2.47;;;;;;;;;;5004288;28;20088;-61
2022/10/05 04:01:09;;;;;;;4.60;2.00;;;16.20;99.90;;;;;;5002741;28;20045;-61
2022/10/05 04:03:37;;;;;;;5.82;2.35;;;;;;;;;;5005814;28;20543;-61
2022/10/05 04:06:18;;;;;;;5.75;2.28;;;;;;;;;;4999945;28;20407;-61
2022/10/05 04:08:49;;;;;;;6.70;2.50;;;;;;;;;;5003580;28;20507;-61
2022/10/05 04:11:22;;;;;;;6.72;1.95;;;15.30;99.90;;;;;;4977992;28;20121;-61
2022/10/05 04:13:57;;;;;;;6.70;2.33;;;15.40;99.90;;;;;;5002913;28;20289;-61
2022/10/05 04:16:26;;;;;;;6.15;1.92;;;;;;;;;;4986859;28;20050;-61
2022/10/05 04:18:59;;;;;;;4.80;1.85;;;;;;;;;;5001933;28;20042;-61
2022/10/05 04:21:29;;;;;;;5.50;2.08;;;;;;;;;;5003471;28;20170;-61
2022/10/05 04:24:01;;;;;;;7.55;2.65;;;;;;;;;;5003721;28;20039;-61
2022/10/05 04:26:41;;;;;;;5.15;2.40;;;;;;;;;;5006354;28;20130;-61
2022/10/05 04:29:26;;;;;;;5.97;2.90;;;;;;;;;;5003463;28;20030;-61
2022/10/05 04:32:20;;;;;;;7.70;2.92;;;15.60;99.90;;;;;;5004152;28;20128;-61
2022/10/05 04:35:07;;;;;;;8.55;2.60;;;;;;;;;;4997743;28;20046;-61
2022/10/05 04:37:45;;;;;;;7.57;2.95;;;;;;;;;;4999845;28;20449;-61
2022/10/05 04:40:25;;;;;;;5.90;3.10;;;;;;;;;;5001351;28;20092;-61
2022/10/05 04:43:08;;;;;;;6.28;2.70;;;;;;;;;;4999599;28;20046;-61
2022/10/05 04:45:40;;;;;;;7.53;3.30;;;15.40;99.90;;;;;;4989623;28;20560;-61
2022/10/05 04:48:48;;;;;;;8.07;3.15;;;15.00;99.90;;;;;;4991299;28;20037;-62
2022/10/05 04:51:30;;;;;;;6.07;3.20;;;;;;;;;;4982494;28;20061;-62
2022/10/05 04:54:28;;;;;;;7.10;3.80;;;;;;;;;;4989083;28;20030;-61
2022/10/05 04:57:00;;;;;;;8.02;3.67;;;15.00;99.90;;;;;;4962882;28;20046;-61
2022/10/05 04:59:43;;;;;;;7.65;3.92;;;;;;;;;;4996724;28;20500;-62
2022/10/05 05:02:12;;;;;;;8.60;3.80;;;;;;;;;;4999282;28;20057;-62
2022/10/05 05:04:47;;;;;;;6.88;4.00;;;;;;;;;;4994719;28;20042;-62
2022/10/05 05:07:17;;;;;;;9.30;4.40;;;;;;;;;;4998493;28;20121;-62
2022/10/05 05:09:55;;;;;;;7.55;3.45;;;;;;;;;;5005207;28;20056;-62
2022/10/05 05:12:24;;;;;;;8.50;3.70;;;14.60;99.90;;;;;;5006479;28;20113;-62
2022/10/05 05:15:06;;;;;;;8.20;4.47;;;;;;;;;;5007072;28;20492;-62
2022/10/05 05:17:32;;;;;;;8.45;4.10;;;;;;;;;;5008618;28;20085;-62
2022/10/05 05:20:17;;;;;;;8.27;4.50;;;;;;;;;;4998676;28;20042;-62
2022/10/05 05:22:57;;;;;;;8.77;4.53;;;;;;;;;;4980912;28;20427;-61
2022/10/05 05:25:35;;;;;;;11.77;5.05;;;;;;;;;;5005618;28;20050;-62
2022/10/05 05:28:11;;;;;;;8.10;4.38;;;;;;;;;;5005768;28;20037;-62
2022/10/05 05:30:42;;;;;;;10.65;5.72;;;;;;;;;;4997934;28;20233;-62
2022/10/05 05:33:08;;;;;;;8.63;5.75;;;;;;;;;;4998173;28;20354;-62
2022/10/05 05:35:57;;;;;;;9.05;5.07;;;;;;;;;;5007459;28;20124;-61
2022/10/05 05:38:43;;;;;;;12.10;5.80;;;;;;;;;;4981700;28;20148;-62
2022/10/05 05:41:11;;;;;;;9.77;5.13;;;;;;;;;;4988619;28;20476;-62
2022/10/05 05:43:43;;;;;;;11.00;5.20;;;;;;;;;;4999317;28;20065;-62
2022/10/05 05:46:21;;;;;;;9.30;5.68;;;15.00;99.90;;;;;;5003749;28;20402;-61
2022/10/05 05:48:48;;;;;;;15.85;6.93;;;15.30;99.90;;;;;;4968764;28;20507;-62
2022/10/05 05:51:17;;;;;;;10.77;5.78;;;15.20;99.90;;;;;;5004488;28;20125;-62
2022/10/05 05:53:44;;;;;;;9.85;5.97;;;;;;;;;;5000205;28;20041;-62
2022/10/05 05:56:14;;;;;;;11.02;5.78;;;;;;;;;;4993176;28;20125;-62
2022/10/05 05:58:58;;;;;;;15.07;6.28;;;;;;;;;;4997896;28;20061;-61
2022/10/05 06:01:25;;;;;;;;;;;;;;;;;;4995391;28;20113;-62
2022/10/05 06:03:57;;;;;;;13.43;6.43;;;;;;;;;;4982940;28;20410;-62
2022/10/05 06:06:30;;;;;;;9.07;5.38;;;;;;;;;;4995204;28;20045;-62
2022/10/05 06:08:57;;;;;;;9.52;5.50;;;;;;;;;;4979450;28;20447;-62
2022/10/05 06:11:25;;;;;;;10.13;5.45;;;;;;;;;;4998245;28;20283;-62
2022/10/05 06:13:53;;;;;;;7.90;4.70;;;;;;;;;;5000738;28;20034;-62
2022/10/05 06:16:38;;;;;;;8.68;5.00;;;;;;;;;;5000622;28;20048;-62
2022/10/05 06:19:08;;;;;;;9.32;5.78;;;;;;;;;;5001644;28;20104;-62
2022/10/05 06:21:37;;;;;;;8.75;5.57;;;;;;;;;;4997561;28;20428;-62
2022/10/05 06:24:21;;;;;;;10.07;5.75;;;15.20;99.90;;;;;;5002136;28;20037;-62
2022/10/05 06:27:02;;;;;;;11.63;5.03;;;15.80;99.90;;;;;;4994850;28;20080;-62
2022/10/05 06:30:03;;;;;;;10.48;5.30;;;15.10;99.90;;;;;;5000543;28;20108;-62
2022/10/05 06:32:34;;;;;;;8.20;4.43;;;14.70;99.90;;;;;;5006089;28;20057;-62
2022/10/05 06:35:11;;;;;;;13.15;4.30;;;;;;;;;;4999436;28;20048;-62
2022/10/05 06:37:55;;;;;;;7.53;4.68;;;;;;;;;;5001035;28;20439;-62
2022/10/05 06:40:33;;;;;;;8.48;4.28;;;;;;;;;;5003935;28;20535;-62
2022/10/05 06:43:15;;;;;;;7.90;4.45;;;;;;;;;;5000573;28;20129;-62
2022/10/05 06:46:00;;;;;;;6.75;4.43;;;;;;;;;;4994751;28;20432;-62
2022/10/05 06:48:44;;;;;;;9.25;4.57;;;;;;;;;;5007342;28;20106;-62
2022/10/05 06:51:22;;;;;;;9.20;4.87;;;;;;;;;;5032307;22;20149;-83
2022/10/05 06:54:07;;;;;;;6.93;4.18;;;;;;;;;;4984760;28;20073;-83
2022/10/05 06:56:33;;;;;;;;;;;;;;;;;;4990058;28;20048;-83
2022/10/05 06:59:20;;;;;;;9.32;4.25;;;;;;;;;;4977871;28;20081;-83
2022/10/05 07:02:08;;;;;;;6.95;3.90;;;15.70;99.90;;;;;;4994807;28;20493;-84
2022/10/05 07:04:47;;;;;;;8.95;3.85;;;;;;;;;;4985365;28;20146;-85
2022/10/05 07:07:22;;;;;;;10.02;4.07;;;;;;;;;;4979193;28;20037;-84
2022/10/05 07:10:15;;;;;;;5.60;3.50;;;14.90;99.90;;;;;;4994986;28;20038;-85
2022/10/05 07:12:54;;;;;;;7.03;3.75;;;;;;;;;;5015171;28;20048;-85
2022/10/05 07:15:35;;;;;;;6.75;3.45;;;;;;;;;;5009299;28;20152;-85
2022/10/05 07:18:01;;;;;;;8.25;3.67;;;;;;;;;;5001372;28;20050;-85
2022/10/05 07:20:27;;;;;;;6.13;3.05;;;;;;;;;;5011552;28;20056;-86
2022/10/05 07:23:12;;;;;;;6.18;3.08;;;;;;;;;;4992468;28;20088;-85
2022/10/05 07:25:38;;;;;;;;;;;;;;;;;;5014117;28;20050;-85
2022/10/05 07:28:19;;;;;;;6.28;3.00;;;;;;;;;;4986926;28;19930;-85
2022/10/05 07:30:56;;;;;;;7.03;4.00;;;;;;;;;;5000359;28;20037;-84
2022/10/05 07:33:36;;;;;;;7.50;3.10;;;;;;;;;;5001029;28;20120;-85
2022/10/05 07:39:08;;;;;;;5.28;2.63;;;;;;;;;;4994943;28;20076;-84
2022/10/05 07:41:43;;;;;;;4.90;2.30;;;;;;;;;;5015777;28;20054;-85
2022/10/05 07:44:18;;;;;;;5.00;2.25;;;;;;;;;;4992536;28;20372;-85
2022/10/05 07:47:10;;;;;;;5.07;2.25;;;;;;;;;;4999815;28;20050;-85
2022/10/05 07:49:57;;;;;;;6.78;2.50;;;;;;;;;;4965871;28;20058;-85
2022/10/05 07:52:53;;;;;;;6.63;2.20;;;;;;;;;;5001903;28;20342;-86
2022/10/05 07:55:19;;;;;;;4.75;2.20;;;;;;;;;;4966334;28;20370;-85
2022/10/05 07:58:02;;;;;;;6.53;2.08;;;;;;;;;;5017405;28;20140;-85
2022/10/05 08:00:41;;;;;;;4.97;2.10;;;;;;;;;;4984758;28;20076;-84
2022/10/05 08:03:10;;;;;;;4.30;1.70;;;;;;;;;;5009000;28;20037;-86
2022/10/05 08:05:40;;;;;;;5.40;2.08;;;;;;;;;;4998275;28;20041;-85
2022/10/05 08:08:06;;;;;;;5.95;1.95;;;;;;;;;;5013572;28;20093;-86
2022/10/05 08:10:44;;;;;;;4.65;1.92;;;;;;;;;;4983991;28;20095;-85
2022/10/05 08:13:19;;;;;;;5.80;2.25;;;;;;;;;;4988594;28;20046;-86
2022/10/05 08:15:47;;;;;;;4.00;1.60;;;;;;;;;;4968485;28;20046;-85
2022/10/05 08:18:20;;;;;;;4.68;1.73;;;;;;;;;;5000093;28;20041;-86
2022/10/05 08:21:21;;;;;;;6.53;1.58;;;;;;;;;;4976223;28;20046;-86
2022/10/05 08:24:05;;;;;;;4.10;1.50;;;;;;;;;;4976535;28;20060;-86
2022/10/05 08:26:47;;;;;;;4.43;1.50;;;;;;;;;;4975865;28;20219;-86
2022/10/05 08:29:16;;;;;;;5.68;1.50;;;;;;;;;;4992750;28;20085;-85
2022/10/05 08:31:45;;;;;;;4.47;1.60;;;;;;;;;;4979646;28;20454;-87
2022/10/05 08:34:20;;;;;;;4.10;1.63;;;;;;;;;;4988529;28;20053;-86
2022/10/05 08:36:47;;;;;;;4.20;1.60;;;;;;;;;;4986035;28;20053;-86
2022/10/05 08:39:16;;;;;;;4.95;1.50;;;;;;;;;;4985069;28;20839;-86
2022/10/05 08:42:04;;;;;;;4.10;1.42;;;16.00;99.90;;;;;;5000661;28;20038;-86
2022/10/05 08:44:53;;;;;;;5.78;1.65;;;;;;;;;;4976968;28;20120;-86
2022/10/05 08:47:48;;;;;;;5.50;2.25;;;;;;;;;;4994794;28;20060;-86
2022/10/05 08:50:14;;;;;;;5.03;1.70;;;;;;;;;;4997448;28;20041;-86
2022/10/05 08:53:00;;;;;;;4.78;1.70;;;;;;;;;;4996917;28;20085;-86
2022/10/05 08:55:31;;;;;;;4.50;1.90;;;;;;;;;;5004279;28;20049;-86
2022/10/05 08:58:13;;;;;;;5.57;1.95;;;;;;;;;;5006182;28;20068;-86
2022/10/05 09:00:57;;;;;;;6.22;1.92;;;16.10;99.90;;;;;;5011138;28;20042;-87
2022/10/05 09:03:26;;;;;;;5.85;2.40;;;;;;;;;;5007532;28;20573;-86
2022/10/05 09:06:04;;;;;;;7.50;2.33;;;;;;;;;;5016288;28;20053;-86
2022/10/05 09:08:30;;;;;;;4.82;1.70;;;;;;;;;;5009799;28;20633;-86
2022/10/05 09:10:57;;;;;;;5.93;2.20;;;;;;;;;;4984712;28;20094;-86
2022/10/05 09:13:44;;;;;;;4.50;1.90;;;;;;;;;;5002543;28;20053;-86
2022/10/05 09:16:20;;;;;;;6.80;2.03;;;;;;;;;;4972340;28;20046;-86
2022/10/05 09:18:59;;;;;;;5.10;2.50;;;;;;;;;;4989216;28;20046;-86
2022/10/05 09:21:42;;;;;;;4.78;2.13;;;;;;;;;;4974274;28;20052;-86
2022/10/05 09:24:14;;;;;;;7.15;2.13;;;;;;;;;;4999836;28;20042;-85
2022/10/05 09:26:40;;;;;;;6.28;2.15;;;16.40;99.90;;;;;;4983232;28;20042;-86
2022/10/05 09:29:25;;;;;;;5.50;2.42;;;;;;;;;;4981060;28;20060;-85
2022/10/05 09:32:17;;;;;;;6.13;2.35;;;;;;;;;;5000183;28;20048;-86
2022/10/05 09:34:55;;;;;;;4.70;2.03;;;;;;;;;;4968978;28;20164;-86
2022/10/05 09:37:30;;;;;;;6.22;2.22;;;;;;;;;;4993654;28;20125;-86
2022/10/05 09:40:13;;;;;;;6.13;2.25;;;;;;;;;;4973855;28;20054;-85
2022/10/05 09:42:42;;;;;;;13.65;2.63;;;;;;;;;;4992427;28;20042;-85
2022/10/05 09:45:11;;;;;;;7.97;2.53;;;;;;;;;;5010784;28;20121;-86
2022/10/05 09:47:58;;;;;;;6.90;2.38;;;16.80;99.90;;;;;;4991661;28;20120;-85
2022/10/05 09:50:40;;;;;;;5.32;2.20;;;;;;;;;;4991203;28;20056;-85
2022/10/05 09:53:18;;;;;;;5.18;2.00;;;;;;;;;;4984042;28;20069;-86
2022/10/05 09:55:47;;;;;;;5.63;1.95;;;;;;;;;;5005282;28;20050;-87
2022/10/05 09:58:21;;;;;;;5.13;2.42;;;;;;;;;;4982219;28;20054;-87
2022/10/05 10:01:06;;;;;;;6.53;2.10;;;;;;;;;;4982125;28;20042;-86
2022/10/05 10:03:51;;;;;;;5.65;2.35;;;;;;;;;;5003936;28;20425;-86
2022/10/05 10:06:20;;;;;;;;;;;;;;;;;;5026508;28;20111;-87
2022/10/05 10:08:50;;;;;;;6.50;2.20;;;17.10;99.90;;;;;;4995069;28;19980;-85
2022/10/05 10:11:22;;;;;;;6.55;2.25;;;;;;;;;;5015107;28;20050;-85
2022/10/05 10:14:05;;;;;;;6.22;2.20;;;;;;;;;;5003866;28;20073;-85
2022/10/05 10:16:44;;;;;;;5.72;2.20;;;;;;;;;;4989853;28;20216;-85
2022/10/05 10:19:27;;;;;;;7.32;2.40;;;;;;;;;;5002833;28;20068;-88
2022/10/05 10:22:04;;;;;;;6.28;2.60;;;;;;;;;;5028419;28;20055;-85
2022/10/05 10:24:37;;;;;;;7.80;2.88;;;;;;;;;;4978658;28;20536;-84
2022/10/05 10:27:40;;;;;;;4.82;2.13;;;16.70;99.90;;;;;;5013339;28;20046;-85
2022/10/05 10:30:28;;;;;;;5.72;2.60;;;;;;;;;;4987402;28;20408;-87
2022/10/05 10:33:12;;;;;;;4.60;2.17;;;;;;;;;;5008007;28;20042;-88
2022/10/05 10:35:58;;;;;;;5.90;2.60;;;;;;;;;;4989080;28;20045;-84
2022/10/05 10:38:49;;;;;;;6.32;2.80;;;;;;;;;;4977442;28;20803;-85
2022/10/05 10:41:38;;;;;;;5.77;2.93;;;;;;;;;;5017418;28;20046;-86
2022/10/05 10:44:20;;;;;;;6.20;2.58;;;;;;;;;;4992231;28;20089;-86
2022/10/05 10:46:49;;;;;;;6.75;2.45;;;;;;;;;;4987584;28;20132;-88
2022/10/05 10:49:25;;;;;;;6.47;2.55;;;;;;;;;;4977348;28;20046;-85
2022/10/05 10:52:03;;;;;;;8.40;3.00;;;;;;;;;;4981261;28;20041;-85
2022/10/05 10:54:35;;;;;;;5.72;2.60;;;;;;;;;;5004110;28;20041;-85
2022/10/05 10:57:07;;;;;;;7.85;3.00;;;;;;;;;;4976413;28;20321;-88
2022/10/05 10:59:38;;;;;;;6.25;2.80;;;;;;;;;;4913902;28;20277;-83
2022/10/05 11:02:26;;;;;;;7.28;2.92;;;;;;;;;;4948763;28;20539;-87
2022/10/05 11:05:02;;;;;;;4.90;2.70;;;;;;;;;;4950253;28;20551;-85
2022/10/05 11:07:46;;;;;;;5.72;3.03;;;;;;;;;;4931272;28;20345;-85
2022/10/05 11:10:45;;;;;;;6.43;3.03;;;;;;;;;;4919682;28;20074;-85
2022/10/05 11:13:27;;;;;;;5.45;2.78;;;;;;;;;;4941316;28;20047;-85
2022/10/05 11:16:12;;;;;;;6.20;2.90;;;;;;;;;;4950357;28;20050;-84
2022/10/05 11:18:49;;;;;;;6.90;3.45;;;;;;;;;;4930791;28;20455;-85
2022/10/05 11:21:29;;;;;;;6.15;3.00;;;;;;;;;;4921245;28;20038;-84
2022/10/05 11:24:14;;;;;;;6.68;2.70;;;;;;;;;;4922977;28;20636;-84
2022/10/05 11:26:59;;;;;;;7.35;3.00;;;;;;;;;;4941148;28;20103;-89
2022/10/05 11:29:25;;;;;;;;;;;;;;;;;;4936863;28;20053;-85
2022/10/05 11:32:13;;;;;;;6.05;2.85;;;;;;;;;;4954149;28;19917;-85
2022/10/05 11:35:02;;;;;;;6.53;3.13;;;;;;;;;;4957945;28;20525;-88
2022/10/05 11:37:37;;;;;;;5.97;2.90;;;;;;;;;;4915366;28;20556;-85
2022/10/05 11:40:17;;;;;;;6.35;2.55;;;;;;;;;;4938491;28;20112;-85
2022/10/05 11:43:22;;;;;;;5.75;2.72;;;;;;;;;;4957468;28;20830;-84
2022/10/05 11:46:04;;;;;;;7.15;2.75;;;;;;;;;;4863754;29;20036;-84
2022/10/05 11:48:48;;;;;;;6.07;2.40;;;;;;;;;;4952766;28;20061;-85
2022/10/05 11:51:28;;;;;;;6.82;2.40;;;;;;;;;;4929421;28;20038;-88
2022/10/05 11:54:05;;;;;;;8.15;2.60;;;;;;;;;;4946730;28;20104;-85
2022/10/05 11:56:40;;;;;;;6.25;2.40;;;;;;;;;;4966012;28;20048;-86
2022/10/05 11:59:06;;;;;;;;;;;;;;;;;;5010593;28;20525;-87
2022/10/05 12:01:54;;;;;;;5.55;2.38;;;;;;;;;;4972443;28;19928;-87
2022/10/05 12:04:33;;;;;;;5.13;2.45;;;;;;;;;;4989680;28;20746;-87
2022/10/05 12:07:05;;;;;;;6.82;2.05;;;;;;;;;;4988705;28;20720;-87
2022/10/05 12:09:34;;;;;;;4.93;2.00;;;;;;;;;;4997454;28;20050;-87
2022/10/05 12:12:09;;;;;;;5.32;2.08;;;;;;;;;;4969941;28;20030;-86
2022/10/05 12:14:47;;;;;;;5.28;2.05;;;;;;;;;;4979502;28;20046;-86
2022/10/05 12:17:31;;;;;;;5.18;2.00;;;;;;;;;;4999019;28;20500;-87
2022/10/05 12:19:59;;;;;;;6.50;2.07;;;;;;;;;;4997208;28;20040;-86
2022/10/05 12:22:31;;;;;;;4.50;2.10;;;;;;;;;;4982803;28;20791;-86
2022/10/05 12:25:01;;;;;;;4.43;2.13;;;;;;;;;;5003410;28;20141;-86
2022/10/05 12:27:47;;;;;;;4.85;2.00;;;;;;;;;;4990070;28;20127;-86
2022/10/05 12:30:33;;;;;;;6.53;2.30;;;;;;;;;;5000537;28;20357;-86
2022/10/05 12:32:59;;;;;;;6.63;2.30;;;;;;;;;;4982046;28;20539;-85
2022/10/05 12:35:51;;;;;;;5.78;2.25;;;16.60;99.90;;;;;;4971884;28;20065;-86
2022/10/05 12:38:32;;;;;;;5.38;2.25;;;;;;;;;;4992328;28;20038;-85
2022/10/05 12:41:13;;;;;;;6.40;2.33;;;;;;;;;;4983543;28;20038;-85
2022/10/05 12:43:55;;;;;;;4.32;1.70;;;;;;;;;;4986818;28;20053;-85
2022/10/05 12:46:26;;;;;;;7.35;2.15;;;;;;;;;;5008512;28;20406;-86
2022/10/05 12:49:05;;;;;;;5.22;1.80;;;;;;;;;;4999777;28;20045;-86
2022/10/05 12:51:58;;;;;;;5.35;1.90;;;;;;;;;;5150773;22;20411;-62
2022/10/05 12:55:03;;;;;;;6.40;2.03;;;16.50;99.90;;;;;;5062817;28;20041;-61
2022/10/05 12:58:08;;;;;;;4.70;2.13;;;16.60;99.90;;;;;;5061988;28;20061;-62
2022/10/05 13:01:17;;;;;;;5.43;2.00;;;17.10;99.90;;;;;;5011348;28;20076;-61
2022/10/05 13:03:49;;;;;;;5.05;2.47;;;;;;;;;;5022199;28;20042;-61
2022/10/05 13:06:23;;;;;;;5.55;2.88;;;17.80;99.90;;;;;;5021472;28;20144;-62
2022/10/05 13:08:59;;;;;;;5.60;2.90;;;;;;;;;;5034711;28;20048;-62
2022/10/05 13:11:49;;;;;;;5.13;3.08;;;17.00;99.90;;;;;;5053185;28;20059;-61
2022/10/05 13:14:38;;;;;;;7.80;3.65;;;;;;;;;;5057590;28;20044;-62
2022/10/05 13:17:17;;;;;;;5.85;3.72;;;17.10;99.90;;;;;;5022338;28;20049;-61
2022/10/05 13:19:47;;;;;;;6.30;3.72;;;18.90;99.90;;;;;;5054580;28;20452;-61
2022/10/05 13:22:47;;;;;;;7.05;3.30;;;19.30;99.90;;;;;;5061992;28;20068;-62
2022/10/05 13:25:12;;;;;;;6.05;3.03;;;19.90;99.90;;;;;;5060200;28;20037;-62
2022/10/05 13:27:52;;;;;;;6.28;3.08;;;21.00;99.90;;;;;;5065431;28;20147;-60
2022/10/05 13:30:20;;;;;;;7.18;2.80;;;21.80;99.90;;;;;;5059223;28;20051;-63
2022/10/05 13:32:53;;;;;;;5.57;2.78;;;22.20;99.90;;;;;;5048239;28;20064;-61
2022/10/05 13:35:47;;;;;;;5.00;2.63;;;22.70;99.90;;;;;;5045772;28;20039;-60
2022/10/05 13:38:19;;;;;;;7.30;2.40;;;23.00;99.90;;;;;;5045732;28;20454;-61
2022/10/05 13:41:16;;;;;;;5.95;2.92;;;23.40;99.90;;;;;;5049544;28;20048;-61
2022/10/05 13:44:04;;;;;;;4.90;2.63;;;23.90;99.90;;;;;;5046595;28;20490;-61
2022/10/05 13:46:35;;;;;;;5.88;2.65;;;23.10;99.90;;;;;;5045277;28;20033;-61
2022/10/05 13:49:25;;;;;;;10.45;2.90;;;21.10;99.90;;;;;;5044895;28;20391;-61
2022/10/05 13:52:09;;;;;;;9.07;3.10;;;19.40;99.90;;;;;;5045902;28;20041;-62
2022/10/05 13:54:54;;;;;;;7.07;3.00;;;19.60;99.90;;;;;;5063479;28;20041;-61
2022/10/05 13:57:43;;;;;;;;;;;18.00;99.90;;;;;;5052014;28;20267;-62
2022/10/05 14:00:20;;;;;;;7.22;3.05;;;18.00;99.90;;;;;;5055299;28;19956;-61
2022/10/05 14:02:51;;;;;;;8.07;2.90;;;17.90;99.90;;;;;;5043132;28;20529;-61
2022/10/05 14:05:28;;;;;;;7.03;3.50;;;17.40;99.90;;;;;;5033930;28;20121;-61
2022/10/05 14:07:57;;;;;;;6.85;3.10;;;17.20;99.90;;;;;;5046113;28;20401;-61
2022/10/05 14:10:40;;;;;;;9.65;3.05;;;;;;;;;;5040676;28;20380;-60
2022/10/05 14:13:31;;;;;;;9.55;3.40;;;17.30;99.90;;;;;;5041077;28;20033;-59
2022/10/05 14:16:03;;;;;;;7.68;3.50;;;17.10;99.90;;;;;;5040553;28;20045;-61
2022/10/05 14:18:31;;;;;;;8.38;3.65;;;16.90;99.90;;;;;;5034875;28;20039;-62
2022/10/05 14:21:21;;;;;;;7.88;3.53;;;17.30;99.90;;;;;;5038512;28;20163;-62
2022/10/05 14:23:47;;;;;;;8.25;4.40;;;17.20;99.90;;;;;;5036293;28;20041;-61
2022/10/05 14:26:25;;;;;;;8.73;4.00;;;17.10;99.90;;;;;;5051967;28;20041;-62
2022/10/05 14:29:02;;;;;;;7.32;3.85;;;16.50;99.90;;;;;;5051187;28;20638;-62
2022/10/05 14:31:45;;;;;;;6.85;3.85;;;17.00;99.90;;;;;;5051132;28;20033;-62
2022/10/05 14:34:30;;;;;;;6.88;3.38;;;;;;;;;;5051177;28;20040;-61
2022/10/05 14:37:05;;;;;;;6.40;3.63;;;17.20;99.90;;;;;;5033502;28;20096;-62
2022/10/05 14:39:34;;;;;;;8.50;3.70;;;17.30;99.90;;;;;;5034217;28;20040;-62
2022/10/05 14:42:17;;;;;;;6.55;3.00;;;17.00;99.90;;;;;;5037823;28;20038;-61
2022/10/05 14:44:44;;;;;;;7.80;3.42;;;;;;;;;;5044317;28;20047;-61
2022/10/05 14:47:18;;;;;;;9.80;3.65;;;;;;;;;;5047777;28;20394;-61
2022/10/05 14:50:12;;;;;;;9.95;3.10;;;16.40;99.90;;;;;;5049275;28;20048;-60
2022/10/05 14:52:40;;;;;;;7.77;2.93;;;;;;;;;;5037814;28;20041;-60
2022/10/05 14:55:28;;;;;;;8.32;2.80;;;;;;;;;;5045507;28;20095;-61
2022/10/05 14:58:12;;;;;;;6.80;3.10;;;;;;;;;;5038838;28;20045;-61
2022/10/05 15:00:55;;;;;;;7.63;2.80;;;;;;;;;;5037117;28;20140;-61
2022/10/05 15:03:40;;;;;;;8.27;2.88;;;17.60;99.90;;;;;;5038177;28;20427;-61
2022/10/05 15:06:31;;;;;;;6.35;2.75;;;16.40;99.90;;;;;;5033640;28;20080;-62
2022/10/05 15:09:06;;;;;;;5.75;2.90;;;;;;;;;;4999182;28;20057;-61
2022/10/05 15:11:41;;;;;;;7.43;2.95;;;;;;;;;;5035566;28;20071;-62
2022/10/05 15:14:14;;;;;;;5.75;2.80;;;;;;;;;;5038422;28;20041;-61